sensor_id;sensor_type;location;lat;lon;timestamp;P1;durP1;ratioP1;P2;durP2;ratioP2
33954;SDS011;20233;50.804;7.126;2024-02-21T00:00:12;10.48;;;4.38;;
33954;SDS011;20233;50.804;7.126;2024-02-21T00:02:39;15.63;;;4.68;;
33954;SDS011;20233;50.804;7.126;2024-02-21T00:05:05;10.90;;;4.60;;
33954;SDS011;20233;50.804;7.126;2024-02-21T00:07:30;11.23;;;4.60;;
33954;SDS011;20233;50.804;7.126;2024-02-21T00:09:56;14.13;;;4.15;;
33954;SDS011;20233;50.804;7.126;2024-02-21T00:12:22;17.13;;;5.10;;
33954;SDS011;20233;50.804;7.126;2024-02-21T00:14:47;12.57;;;4.40;;
33954;SDS011;20233;50.804;7.126;2024-02-21T00:17:13;11.52;;;4.30;;
33954;SDS011;20233;50.804;7.126;2024-02-21T00:19:38;13.05;;;4.47;;
33954;SDS011;20233;50.804;7.126;2024-02-21T00:22:03;11.77;;;4.20;;
33954;SDS011;20233;50.804;7.126;2024-02-21T00:24:29;10.40;;;4.47;;
33954;SDS011;20233;50.804;7.126;2024-02-21T00:26:55;15.15;;;4.57;;
33954;SDS011;20233;50.804;7.126;2024-02-21T00:29:20;15.70;;;5.18;;
33954;SDS011;20233;50.804;7.126;2024-02-21T00:31:46;12.18;;;4.93;;
33954;SDS011;20233;50.804;7.126;2024-02-21T00:34:12;14.43;;;4.18;;
33954;SDS011;20233;50.804;7.126;2024-02-21T00:36:38;11.57;;;4.40;;
33954;SDS011;20233;50.804;7.126;2024-02-21T00:39:04;12.32;;;5.07;;
33954;SDS011;20233;50.804;7.126;2024-02-21T00:41:29;14.05;;;4.38;;
33954;SDS011;20233;50.804;7.126;2024-02-21T00:43:55;13.18;;;4.32;;
33954;SDS011;20233;50.804;7.126;2024-02-21T00:46:20;9.77;;;4.22;;
33954;SDS011;20233;50.804;7.126;2024-02-21T00:48:46;12.18;;;4.80;;
33954;SDS011;20233;50.804;7.126;2024-02-21T00:51:11;14.07;;;4.10;;
33954;SDS011;20233;50.804;7.126;2024-02-21T00:53:36;10.48;;;4.30;;
33954;SDS011;20233;50.804;7.126;2024-02-21T00:56:04;13.82;;;4.78;;
33954;SDS011;20233;50.804;7.126;2024-02-21T00:58:30;13.30;;;4.82;;
33954;SDS011;20233;50.804;7.126;2024-02-21T01:00:55;13.18;;;3.78;;
33954;SDS011;20233;50.804;7.126;2024-02-21T01:03:21;13.55;;;3.90;;
33954;SDS011;20233;50.804;7.126;2024-02-21T01:05:46;12.45;;;3.90;;
33954;SDS011;20233;50.804;7.126;2024-02-21T01:08:12;14.27;;;3.63;;
33954;SDS011;20233;50.804;7.126;2024-02-21T01:10:37;13.85;;;3.67;;
33954;SDS011;20233;50.804;7.126;2024-02-21T01:13:03;9.63;;;2.85;;
33954;SDS011;20233;50.804;7.126;2024-02-21T01:15:28;9.15;;;3.30;;
33954;SDS011;20233;50.804;7.126;2024-02-21T01:17:54;13.05;;;3.17;;
33954;SDS011;20233;50.804;7.126;2024-02-21T01:20:20;9.13;;;3.50;;
33954;SDS011;20233;50.804;7.126;2024-02-21T01:22:46;9.85;;;3.47;;
33954;SDS011;20233;50.804;7.126;2024-02-21T01:25:12;12.70;;;4.18;;
33954;SDS011;20233;50.804;7.126;2024-02-21T01:27:37;10.15;;;3.17;;
33954;SDS011;20233;50.804;7.126;2024-02-21T01:30:03;13.90;;;3.70;;
33954;SDS011;20233;50.804;7.126;2024-02-21T01:32:29;13.70;;;2.88;;
33954;SDS011;20233;50.804;7.126;2024-02-21T01:34:54;7.18;;;3.20;;
33954;SDS011;20233;50.804;7.126;2024-02-21T01:37:20;10.75;;;3.58;;
33954;SDS011;20233;50.804;7.126;2024-02-21T01:39:46;10.75;;;2.95;;
33954;SDS011;20233;50.804;7.126;2024-02-21T01:42:12;12.88;;;3.75;;
33954;SDS011;20233;50.804;7.126;2024-02-21T01:44:37;9.65;;;3.47;;
33954;SDS011;20233;50.804;7.126;2024-02-21T01:47:03;7.68;;;3.10;;
33954;SDS011;20233;50.804;7.126;2024-02-21T01:49:28;12.82;;;3.75;;
33954;SDS011;20233;50.804;7.126;2024-02-21T01:51:55;11.02;;;3.67;;
33954;SDS011;20233;50.804;7.126;2024-02-21T01:54:20;9.10;;;2.65;;
33954;SDS011;20233;50.804;7.126;2024-02-21T01:56:46;12.77;;;3.28;;
33954;SDS011;20233;50.804;7.126;2024-02-21T01:59:13;9.82;;;3.33;;
33954;SDS011;20233;50.804;7.126;2024-02-21T02:01:40;12.60;;;3.75;;
33954;SDS011;20233;50.804;7.126;2024-02-21T02:04:07;10.15;;;2.50;;
33954;SDS011;20233;50.804;7.126;2024-02-21T02:06:33;12.48;;;3.35;;
33954;SDS011;20233;50.804;7.126;2024-02-21T02:08:59;9.77;;;3.45;;
33954;SDS011;20233;50.804;7.126;2024-02-21T02:11:25;11.80;;;2.95;;
33954;SDS011;20233;50.804;7.126;2024-02-21T02:13:50;13.88;;;2.80;;
33954;SDS011;20233;50.804;7.126;2024-02-21T02:16:16;13.07;;;3.22;;
33954;SDS011;20233;50.804;7.126;2024-02-21T02:18:41;9.75;;;3.15;;
33954;SDS011;20233;50.804;7.126;2024-02-21T02:21:09;10.00;;;2.75;;
33954;SDS011;20233;50.804;7.126;2024-02-21T02:23:47;7.82;;;2.80;;
33954;SDS011;20233;50.804;7.126;2024-02-21T02:26:13;9.82;;;2.58;;
33954;SDS011;20233;50.804;7.126;2024-02-21T02:28:38;11.50;;;3.08;;
33954;SDS011;20233;50.804;7.126;2024-02-21T02:31:04;12.65;;;3.67;;
33954;SDS011;20233;50.804;7.126;2024-02-21T02:33:30;8.73;;;3.33;;
33954;SDS011;20233;50.804;7.126;2024-02-21T02:35:56;9.40;;;2.85;;
33954;SDS011;20233;50.804;7.126;2024-02-21T02:38:22;11.13;;;3.05;;
33954;SDS011;20233;50.804;7.126;2024-02-21T02:40:48;12.63;;;3.33;;
33954;SDS011;20233;50.804;7.126;2024-02-21T02:43:13;9.23;;;2.67;;
33954;SDS011;20233;50.804;7.126;2024-02-21T02:45:39;13.77;;;3.67;;
33954;SDS011;20233;50.804;7.126;2024-02-21T02:48:04;10.25;;;2.83;;
33954;SDS011;20233;50.804;7.126;2024-02-21T02:50:30;9.38;;;3.22;;
33954;SDS011;20233;50.804;7.126;2024-02-21T02:52:56;8.07;;;2.42;;
33954;SDS011;20233;50.804;7.126;2024-02-21T02:55:22;13.07;;;2.83;;
33954;SDS011;20233;50.804;7.126;2024-02-21T02:57:47;8.32;;;2.85;;
33954;SDS011;20233;50.804;7.126;2024-02-21T03:00:13;7.88;;;3.13;;
33954;SDS011;20233;50.804;7.126;2024-02-21T03:02:40;10.43;;;2.60;;
33954;SDS011;20233;50.804;7.126;2024-02-21T03:05:13;7.70;;;3.00;;
33954;SDS011;20233;50.804;7.126;2024-02-21T03:07:40;10.30;;;2.97;;
33954;SDS011;20233;50.804;7.126;2024-02-21T03:10:06;9.77;;;2.90;;
33954;SDS011;20233;50.804;7.126;2024-02-21T03:12:32;10.20;;;2.72;;
33954;SDS011;20233;50.804;7.126;2024-02-21T03:14:57;10.98;;;3.20;;
33954;SDS011;20233;50.804;7.126;2024-02-21T03:17:23;6.78;;;2.40;;
33954;SDS011;20233;50.804;7.126;2024-02-21T03:19:51;14.07;;;3.78;;
33954;SDS011;20233;50.804;7.126;2024-02-21T03:22:17;10.32;;;3.08;;
33954;SDS011;20233;50.804;7.126;2024-02-21T03:24:43;11.98;;;2.95;;
33954;SDS011;20233;50.804;7.126;2024-02-21T03:27:09;12.25;;;2.75;;
33954;SDS011;20233;50.804;7.126;2024-02-21T03:29:34;9.23;;;2.83;;
33954;SDS011;20233;50.804;7.126;2024-02-21T03:32:00;7.57;;;2.92;;
33954;SDS011;20233;50.804;7.126;2024-02-21T03:34:25;15.38;;;3.50;;
33954;SDS011;20233;50.804;7.126;2024-02-21T03:36:51;10.63;;;2.30;;
33954;SDS011;20233;50.804;7.126;2024-02-21T03:39:16;10.05;;;3.40;;
33954;SDS011;20233;50.804;7.126;2024-02-21T03:41:42;9.93;;;3.08;;
33954;SDS011;20233;50.804;7.126;2024-02-21T03:44:08;9.18;;;3.30;;
33954;SDS011;20233;50.804;7.126;2024-02-21T03:46:34;12.55;;;3.40;;
33954;SDS011;20233;50.804;7.126;2024-02-21T03:49:00;14.85;;;3.10;;
33954;SDS011;20233;50.804;7.126;2024-02-21T03:51:26;14.23;;;3.05;;
33954;SDS011;20233;50.804;7.126;2024-02-21T03:53:52;11.90;;;3.05;;
33954;SDS011;20233;50.804;7.126;2024-02-21T03:56:17;12.60;;;3.28;;
33954;SDS011;20233;50.804;7.126;2024-02-21T03:58:43;8.93;;;2.90;;
33954;SDS011;20233;50.804;7.126;2024-02-21T04:01:09;10.07;;;2.60;;
33954;SDS011;20233;50.804;7.126;2024-02-21T04:03:34;10.10;;;2.75;;
33954;SDS011;20233;50.804;7.126;2024-02-21T04:06:00;8.70;;;2.40;;
33954;SDS011;20233;50.804;7.126;2024-02-21T04:08:25;10.43;;;3.30;;
33954;SDS011;20233;50.804;7.126;2024-02-21T04:10:51;15.75;;;3.22;;
33954;SDS011;20233;50.804;7.126;2024-02-21T04:13:17;9.90;;;2.92;;
33954;SDS011;20233;50.804;7.126;2024-02-21T04:15:42;6.95;;;2.92;;
33954;SDS011;20233;50.804;7.126;2024-02-21T04:18:08;13.68;;;2.78;;
33954;SDS011;20233;50.804;7.126;2024-02-21T04:20:34;9.73;;;3.22;;
33954;SDS011;20233;50.804;7.126;2024-02-21T04:23:00;12.20;;;3.13;;
33954;SDS011;20233;50.804;7.126;2024-02-21T04:25:25;13.52;;;3.42;;
33954;SDS011;20233;50.804;7.126;2024-02-21T04:27:51;13.60;;;3.42;;
33954;SDS011;20233;50.804;7.126;2024-02-21T04:30:17;10.27;;;2.90;;
33954;SDS011;20233;50.804;7.126;2024-02-21T04:32:42;11.55;;;2.80;;
33954;SDS011;20233;50.804;7.126;2024-02-21T04:35:08;14.15;;;4.05;;
33954;SDS011;20233;50.804;7.126;2024-02-21T04:37:33;12.45;;;2.75;;
33954;SDS011;20233;50.804;7.126;2024-02-21T04:39:59;10.88;;;2.75;;
33954;SDS011;20233;50.804;7.126;2024-02-21T04:42:25;13.38;;;3.85;;
33954;SDS011;20233;50.804;7.126;2024-02-21T04:44:51;12.05;;;2.70;;
33954;SDS011;20233;50.804;7.126;2024-02-21T04:47:17;8.65;;;3.35;;
33954;SDS011;20233;50.804;7.126;2024-02-21T04:49:43;10.63;;;3.13;;
33954;SDS011;20233;50.804;7.126;2024-02-21T04:52:09;12.45;;;2.28;;
33954;SDS011;20233;50.804;7.126;2024-02-21T04:54:34;12.73;;;3.28;;
33954;SDS011;20233;50.804;7.126;2024-02-21T04:57:00;10.38;;;2.55;;
33954;SDS011;20233;50.804;7.126;2024-02-21T04:59:26;11.70;;;3.25;;
33954;SDS011;20233;50.804;7.126;2024-02-21T05:01:51;11.07;;;2.90;;
33954;SDS011;20233;50.804;7.126;2024-02-21T05:04:17;10.55;;;2.28;;
33954;SDS011;20233;50.804;7.126;2024-02-21T05:06:42;18.58;;;3.78;;
33954;SDS011;20233;50.804;7.126;2024-02-21T05:09:08;11.93;;;2.63;;
33954;SDS011;20233;50.804;7.126;2024-02-21T05:11:35;7.68;;;2.67;;
33954;SDS011;20233;50.804;7.126;2024-02-21T05:14:01;9.32;;;2.58;;
33954;SDS011;20233;50.804;7.126;2024-02-21T05:16:28;7.90;;;2.53;;
33954;SDS011;20233;50.804;7.126;2024-02-21T05:18:54;8.15;;;2.08;;
33954;SDS011;20233;50.804;7.126;2024-02-21T05:21:21;11.23;;;2.20;;
33954;SDS011;20233;50.804;7.126;2024-02-21T05:23:48;8.80;;;2.15;;
33954;SDS011;20233;50.804;7.126;2024-02-21T05:26:19;7.50;;;2.42;;
33954;SDS011;20233;50.804;7.126;2024-02-21T05:28:46;8.52;;;2.20;;
33954;SDS011;20233;50.804;7.126;2024-02-21T05:31:12;7.82;;;2.35;;
33954;SDS011;20233;50.804;7.126;2024-02-21T05:33:39;14.70;;;2.83;;
33954;SDS011;20233;50.804;7.126;2024-02-21T05:36:04;11.40;;;2.55;;
33954;SDS011;20233;50.804;7.126;2024-02-21T05:38:30;10.73;;;2.75;;
33954;SDS011;20233;50.804;7.126;2024-02-21T05:40:56;8.48;;;2.50;;
33954;SDS011;20233;50.804;7.126;2024-02-21T05:43:22;10.20;;;2.72;;
33954;SDS011;20233;50.804;7.126;2024-02-21T05:45:47;12.05;;;2.78;;
33954;SDS011;20233;50.804;7.126;2024-02-21T05:48:13;12.07;;;2.63;;
33954;SDS011;20233;50.804;7.126;2024-02-21T05:50:39;8.73;;;2.17;;
33954;SDS011;20233;50.804;7.126;2024-02-21T05:53:04;8.63;;;2.47;;
33954;SDS011;20233;50.804;7.126;2024-02-21T05:55:30;7.68;;;2.25;;
33954;SDS011;20233;50.804;7.126;2024-02-21T05:57:56;11.50;;;2.92;;
33954;SDS011;20233;50.804;7.126;2024-02-21T06:00:21;9.23;;;2.10;;
33954;SDS011;20233;50.804;7.126;2024-02-21T06:02:47;8.43;;;2.40;;
33954;SDS011;20233;50.804;7.126;2024-02-21T06:05:12;7.25;;;2.08;;
33954;SDS011;20233;50.804;7.126;2024-02-21T06:07:38;9.35;;;2.38;;
33954;SDS011;20233;50.804;7.126;2024-02-21T06:10:04;7.65;;;2.25;;
33954;SDS011;20233;50.804;7.126;2024-02-21T06:12:30;8.85;;;2.25;;
33954;SDS011;20233;50.804;7.126;2024-02-21T06:14:56;9.88;;;2.20;;
33954;SDS011;20233;50.804;7.126;2024-02-21T06:17:21;10.82;;;1.77;;
33954;SDS011;20233;50.804;7.126;2024-02-21T06:19:47;8.95;;;2.05;;
33954;SDS011;20233;50.804;7.126;2024-02-21T06:22:12;9.60;;;2.10;;
33954;SDS011;20233;50.804;7.126;2024-02-21T06:24:38;10.63;;;2.42;;
33954;SDS011;20233;50.804;7.126;2024-02-21T06:27:04;10.27;;;1.85;;
33954;SDS011;20233;50.804;7.126;2024-02-21T06:29:31;11.35;;;2.33;;
33954;SDS011;20233;50.804;7.126;2024-02-21T06:31:56;7.53;;;1.83;;
33954;SDS011;20233;50.804;7.126;2024-02-21T06:34:22;10.05;;;2.10;;
33954;SDS011;20233;50.804;7.126;2024-02-21T06:36:49;10.52;;;2.20;;
33954;SDS011;20233;50.804;7.126;2024-02-21T06:39:15;8.80;;;2.22;;
33954;SDS011;20233;50.804;7.126;2024-02-21T06:41:41;11.13;;;1.95;;
33954;SDS011;20233;50.804;7.126;2024-02-21T06:44:06;11.82;;;3.55;;
33954;SDS011;20233;50.804;7.126;2024-02-21T06:46:32;6.57;;;2.25;;
33954;SDS011;20233;50.804;7.126;2024-02-21T06:48:58;9.25;;;2.15;;
33954;SDS011;20233;50.804;7.126;2024-02-21T06:51:25;11.07;;;2.53;;
33954;SDS011;20233;50.804;7.126;2024-02-21T06:53:51;9.57;;;2.45;;
33954;SDS011;20233;50.804;7.126;2024-02-21T06:56:17;10.13;;;2.38;;
33954;SDS011;20233;50.804;7.126;2024-02-21T06:58:43;8.90;;;2.08;;
33954;SDS011;20233;50.804;7.126;2024-02-21T07:01:08;8.73;;;2.60;;
33954;SDS011;20233;50.804;7.126;2024-02-21T07:03:35;9.48;;;2.13;;
33954;SDS011;20233;50.804;7.126;2024-02-21T07:06:01;8.70;;;2.38;;
33954;SDS011;20233;50.804;7.126;2024-02-21T07:08:27;11.60;;;2.30;;
33954;SDS011;20233;50.804;7.126;2024-02-21T07:10:52;11.35;;;2.10;;
33954;SDS011;20233;50.804;7.126;2024-02-21T07:13:18;9.07;;;2.20;;
33954;SDS011;20233;50.804;7.126;2024-02-21T07:15:43;9.43;;;2.05;;
33954;SDS011;20233;50.804;7.126;2024-02-21T07:18:09;8.90;;;2.63;;
33954;SDS011;20233;50.804;7.126;2024-02-21T07:20:34;11.48;;;2.60;;
33954;SDS011;20233;50.804;7.126;2024-02-21T07:23:02;9.73;;;2.58;;
33954;SDS011;20233;50.804;7.126;2024-02-21T07:25:28;10.25;;;2.70;;
33954;SDS011;20233;50.804;7.126;2024-02-21T07:27:54;9.10;;;2.65;;
33954;SDS011;20233;50.804;7.126;2024-02-21T07:30:19;9.30;;;2.67;;
33954;SDS011;20233;50.804;7.126;2024-02-21T07:32:45;13.02;;;3.00;;
33954;SDS011;20233;50.804;7.126;2024-02-21T07:35:10;9.68;;;2.72;;
33954;SDS011;20233;50.804;7.126;2024-02-21T07:37:37;9.10;;;2.05;;
33954;SDS011;20233;50.804;7.126;2024-02-21T07:40:04;8.02;;;2.80;;
33954;SDS011;20233;50.804;7.126;2024-02-21T07:42:40;12.15;;;2.60;;
33954;SDS011;20233;50.804;7.126;2024-02-21T07:45:09;9.60;;;2.42;;
33954;SDS011;20233;50.804;7.126;2024-02-21T07:47:35;9.82;;;3.08;;
33954;SDS011;20233;50.804;7.126;2024-02-21T07:50:01;15.20;;;2.65;;
33954;SDS011;20233;50.804;7.126;2024-02-21T07:52:27;10.75;;;3.50;;
33954;SDS011;20233;50.804;7.126;2024-02-21T07:54:53;15.07;;;4.00;;
33954;SDS011;20233;50.804;7.126;2024-02-21T07:57:19;16.70;;;3.72;;
33954;SDS011;20233;50.804;7.126;2024-02-21T07:59:44;12.05;;;3.67;;
33954;SDS011;20233;50.804;7.126;2024-02-21T08:02:15;15.75;;;3.03;;
33954;SDS011;20233;50.804;7.126;2024-02-21T08:04:41;9.15;;;2.88;;
33954;SDS011;20233;50.804;7.126;2024-02-21T08:07:07;12.65;;;3.20;;
33954;SDS011;20233;50.804;7.126;2024-02-21T08:09:33;7.70;;;2.90;;
33954;SDS011;20233;50.804;7.126;2024-02-21T08:12:00;9.35;;;2.67;;
33954;SDS011;20233;50.804;7.126;2024-02-21T08:14:25;12.95;;;2.90;;
33954;SDS011;20233;50.804;7.126;2024-02-21T08:16:51;10.13;;;3.03;;
33954;SDS011;20233;50.804;7.126;2024-02-21T08:19:21;8.85;;;3.15;;
33954;SDS011;20233;50.804;7.126;2024-02-21T08:21:47;9.93;;;3.10;;
33954;SDS011;20233;50.804;7.126;2024-02-21T08:24:15;9.10;;;2.17;;
33954;SDS011;20233;50.804;7.126;2024-02-21T08:26:42;8.57;;;2.67;;
33954;SDS011;20233;50.804;7.126;2024-02-21T08:29:09;7.82;;;2.60;;
33954;SDS011;20233;50.804;7.126;2024-02-21T08:31:35;8.45;;;2.47;;
33954;SDS011;20233;50.804;7.126;2024-02-21T08:34:01;12.57;;;3.15;;
33954;SDS011;20233;50.804;7.126;2024-02-21T08:36:30;10.43;;;3.50;;
33954;SDS011;20233;50.804;7.126;2024-02-21T08:38:58;12.98;;;2.65;;
33954;SDS011;20233;50.804;7.126;2024-02-21T08:41:24;17.50;;;3.20;;
33954;SDS011;20233;50.804;7.126;2024-02-21T08:43:54;8.98;;;2.60;;
33954;SDS011;20233;50.804;7.126;2024-02-21T08:46:20;8.93;;;2.53;;
33954;SDS011;20233;50.804;7.126;2024-02-21T08:48:46;9.32;;;2.25;;
33954;SDS011;20233;50.804;7.126;2024-02-21T08:51:13;6.70;;;2.30;;
33954;SDS011;20233;50.804;7.126;2024-02-21T08:53:46;11.35;;;2.90;;
33954;SDS011;20233;50.804;7.126;2024-02-21T08:56:12;11.10;;;2.65;;
33954;SDS011;20233;50.804;7.126;2024-02-21T08:58:39;8.50;;;2.53;;
33954;SDS011;20233;50.804;7.126;2024-02-21T09:01:05;8.82;;;2.78;;
33954;SDS011;20233;50.804;7.126;2024-02-21T09:03:35;8.77;;;2.72;;
33954;SDS011;20233;50.804;7.126;2024-02-21T09:06:02;10.88;;;3.40;;
33954;SDS011;20233;50.804;7.126;2024-02-21T09:08:28;9.15;;;2.35;;
33954;SDS011;20233;50.804;7.126;2024-02-21T09:10:54;9.55;;;2.38;;
33954;SDS011;20233;50.804;7.126;2024-02-21T09:13:19;11.57;;;2.50;;
33954;SDS011;20233;50.804;7.126;2024-02-21T09:15:45;9.07;;;2.40;;
33954;SDS011;20233;50.804;7.126;2024-02-21T09:18:12;10.20;;;2.55;;
33954;SDS011;20233;50.804;7.126;2024-02-21T09:20:38;12.82;;;2.45;;
33954;SDS011;20233;50.804;7.126;2024-02-21T09:23:05;14.05;;;2.60;;
33954;SDS011;20233;50.804;7.126;2024-02-21T09:25:31;8.55;;;3.17;;
33954;SDS011;20233;50.804;7.126;2024-02-21T09:27:57;11.65;;;2.38;;
33954;SDS011;20233;50.804;7.126;2024-02-21T09:30:24;16.42;;;2.70;;
33954;SDS011;20233;50.804;7.126;2024-02-21T09:32:49;6.15;;;2.08;;
33954;SDS011;20233;50.804;7.126;2024-02-21T09:35:18;9.93;;;2.58;;
33954;SDS011;20233;50.804;7.126;2024-02-21T09:37:44;10.88;;;2.08;;
33954;SDS011;20233;50.804;7.126;2024-02-21T09:40:09;9.85;;;2.33;;
33954;SDS011;20233;50.804;7.126;2024-02-21T09:42:36;11.00;;;2.33;;
33954;SDS011;20233;50.804;7.126;2024-02-21T09:45:08;13.52;;;3.55;;
33954;SDS011;20233;50.804;7.126;2024-02-21T09:50:38;9.15;;;2.47;;
33954;SDS011;20233;50.804;7.126;2024-02-21T09:53:06;9.35;;;2.25;;
33954;SDS011;20233;50.804;7.126;2024-02-21T09:55:32;11.15;;;2.65;;
33954;SDS011;20233;50.804;7.126;2024-02-21T09:57:59;9.15;;;2.08;;
33954;SDS011;20233;50.804;7.126;2024-02-21T10:00:27;6.80;;;2.80;;
33954;SDS011;20233;50.804;7.126;2024-02-21T10:02:53;7.78;;;1.85;;
33954;SDS011;20233;50.804;7.126;2024-02-21T10:05:19;8.98;;;2.15;;
33954;SDS011;20233;50.804;7.126;2024-02-21T10:07:48;11.15;;;2.50;;
33954;SDS011;20233;50.804;7.126;2024-02-21T10:10:15;9.35;;;2.42;;
33954;SDS011;20233;50.804;7.126;2024-02-21T10:12:50;10.52;;;2.60;;
33954;SDS011;20233;50.804;7.126;2024-02-21T10:15:20;10.23;;;2.80;;
33954;SDS011;20233;50.804;7.126;2024-02-21T10:17:47;10.93;;;2.38;;
33954;SDS011;20233;50.804;7.126;2024-02-21T10:20:13;10.63;;;1.98;;
33954;SDS011;20233;50.804;7.126;2024-02-21T10:22:42;11.25;;;2.45;;
33954;SDS011;20233;50.804;7.126;2024-02-21T10:27:34;8.25;;;2.78;;
33954;SDS011;20233;50.804;7.126;2024-02-21T10:30:00;13.48;;;3.05;;
33954;SDS011;20233;50.804;7.126;2024-02-21T10:32:25;10.27;;;1.70;;
33954;SDS011;20233;50.804;7.126;2024-02-21T10:35:00;4.03;;;1.42;;
33954;SDS011;20233;50.804;7.126;2024-02-21T10:37:28;6.43;;;1.63;;
33954;SDS011;20233;50.804;7.126;2024-02-21T10:39:53;7.47;;;2.17;;
33954;SDS011;20233;50.804;7.126;2024-02-21T10:42:21;8.23;;;2.40;;
33954;SDS011;20233;50.804;7.126;2024-02-21T10:44:51;7.22;;;2.20;;
33954;SDS011;20233;50.804;7.126;2024-02-21T10:47:17;8.60;;;2.07;;
33954;SDS011;20233;50.804;7.126;2024-02-21T10:49:46;7.13;;;1.95;;
33954;SDS011;20233;50.804;7.126;2024-02-21T10:52:29;6.57;;;1.33;;
33954;SDS011;20233;50.804;7.126;2024-02-21T10:58:00;10.13;;;2.03;;
33954;SDS011;20233;50.804;7.126;2024-02-21T11:00:27;9.00;;;2.10;;
33954;SDS011;20233;50.804;7.126;2024-02-21T11:02:56;8.25;;;2.15;;
33954;SDS011;20233;50.804;7.126;2024-02-21T11:05:22;8.05;;;2.15;;
33954;SDS011;20233;50.804;7.126;2024-02-21T11:07:49;5.32;;;1.67;;
33954;SDS011;20233;50.804;7.126;2024-02-21T11:10:25;5.68;;;1.38;;
33954;SDS011;20233;50.804;7.126;2024-02-21T11:13:07;9.20;;;2.20;;
33954;SDS011;20233;50.804;7.126;2024-02-21T11:15:33;7.53;;;1.63;;
33954;SDS011;20233;50.804;7.126;2024-02-21T11:17:59;5.90;;;1.67;;
33954;SDS011;20233;50.804;7.126;2024-02-21T11:20:32;7.32;;;1.33;;
33954;SDS011;20233;50.804;7.126;2024-02-21T11:22:59;8.95;;;2.40;;
33954;SDS011;20233;50.804;7.126;2024-02-21T11:25:26;7.28;;;1.55;;
33954;SDS011;20233;50.804;7.126;2024-02-21T11:28:01;5.43;;;1.70;;
33954;SDS011;20233;50.804;7.126;2024-02-21T11:30:31;6.90;;;1.70;;
33954;SDS011;20233;50.804;7.126;2024-02-21T11:33:05;7.05;;;1.98;;
33954;SDS011;20233;50.804;7.126;2024-02-21T11:35:35;9.88;;;1.67;;
33954;SDS011;20233;50.804;7.126;2024-02-21T11:38:08;5.50;;;1.50;;
33954;SDS011;20233;50.804;7.126;2024-02-21T11:40:44;9.13;;;1.67;;
33954;SDS011;20233;50.804;7.126;2024-02-21T11:43:11;7.93;;;1.63;;
33954;SDS011;20233;50.804;7.126;2024-02-21T11:45:36;4.53;;;1.30;;
33954;SDS011;20233;50.804;7.126;2024-02-21T11:48:05;8.52;;;1.38;;
33954;SDS011;20233;50.804;7.126;2024-02-21T11:50:31;5.30;;;1.02;;
33954;SDS011;20233;50.804;7.126;2024-02-21T11:52:57;6.60;;;1.25;;
33954;SDS011;20233;50.804;7.126;2024-02-21T11:55:23;5.35;;;1.08;;
33954;SDS011;20233;50.804;7.126;2024-02-21T11:57:49;9.88;;;1.38;;
33954;SDS011;20233;50.804;7.126;2024-02-21T12:00:16;4.63;;;1.38;;
33954;SDS011;20233;50.804;7.126;2024-02-21T12:02:45;8.93;;;0.98;;
33954;SDS011;20233;50.804;7.126;2024-02-21T12:05:11;6.25;;;1.30;;
33954;SDS011;20233;50.804;7.126;2024-02-21T12:07:37;10.45;;;1.30;;
33954;SDS011;20233;50.804;7.126;2024-02-21T12:10:07;2.78;;;0.90;;
33954;SDS011;20233;50.804;7.126;2024-02-21T12:12:37;9.13;;;1.52;;
33954;SDS011;20233;50.804;7.126;2024-02-21T12:15:04;8.10;;;1.65;;
33954;SDS011;20233;50.804;7.126;2024-02-21T12:17:32;5.25;;;1.30;;
33954;SDS011;20233;50.804;7.126;2024-02-21T12:19:59;7.57;;;1.35;;
33954;SDS011;20233;50.804;7.126;2024-02-21T12:22:25;5.88;;;1.75;;
33954;SDS011;20233;50.804;7.126;2024-02-21T12:24:51;9.13;;;1.42;;
33954;SDS011;20233;50.804;7.126;2024-02-21T12:27:17;6.00;;;2.10;;
33954;SDS011;20233;50.804;7.126;2024-02-21T12:29:42;8.45;;;1.67;;
33954;SDS011;20233;50.804;7.126;2024-02-21T12:32:08;5.97;;;1.50;;
33954;SDS011;20233;50.804;7.126;2024-02-21T12:34:34;4.68;;;1.23;;
33954;SDS011;20233;50.804;7.126;2024-02-21T12:37:01;5.15;;;1.48;;
33954;SDS011;20233;50.804;7.126;2024-02-21T12:39:31;7.97;;;1.58;;
33954;SDS011;20233;50.804;7.126;2024-02-21T12:41:57;5.25;;;1.70;;
33954;SDS011;20233;50.804;7.126;2024-02-21T12:44:23;4.78;;;1.15;;
33954;SDS011;20233;50.804;7.126;2024-02-21T12:46:49;6.75;;;1.10;;
33954;SDS011;20233;50.804;7.126;2024-02-21T12:49:17;4.60;;;0.85;;
33954;SDS011;20233;50.804;7.126;2024-02-21T12:51:43;5.28;;;0.90;;
33954;SDS011;20233;50.804;7.126;2024-02-21T12:54:11;5.45;;;1.30;;
33954;SDS011;20233;50.804;7.126;2024-02-21T12:56:37;5.97;;;1.10;;
33954;SDS011;20233;50.804;7.126;2024-02-21T12:59:04;9.05;;;1.70;;
33954;SDS011;20233;50.804;7.126;2024-02-21T13:01:32;6.32;;;1.63;;
33954;SDS011;20233;50.804;7.126;2024-02-21T13:03:58;8.93;;;1.45;;
33954;SDS011;20233;50.804;7.126;2024-02-21T13:06:25;8.13;;;1.20;;
33954;SDS011;20233;50.804;7.126;2024-02-21T13:08:54;6.45;;;1.30;;
33954;SDS011;20233;50.804;7.126;2024-02-21T13:11:20;6.88;;;1.27;;
33954;SDS011;20233;50.804;7.126;2024-02-21T13:13:45;8.60;;;1.40;;
33954;SDS011;20233;50.804;7.126;2024-02-21T13:16:11;7.93;;;1.50;;
33954;SDS011;20233;50.804;7.126;2024-02-21T13:18:37;12.90;;;2.08;;
33954;SDS011;20233;50.804;7.126;2024-02-21T13:21:04;8.27;;;1.42;;
33954;SDS011;20233;50.804;7.126;2024-02-21T13:23:30;8.50;;;1.55;;
33954;SDS011;20233;50.804;7.126;2024-02-21T13:25:55;6.55;;;1.60;;
33954;SDS011;20233;50.804;7.126;2024-02-21T13:28:21;5.93;;;1.40;;
33954;SDS011;20233;50.804;7.126;2024-02-21T13:30:47;5.72;;;1.88;;
33954;SDS011;20233;50.804;7.126;2024-02-21T13:33:13;8.60;;;1.60;;
33954;SDS011;20233;50.804;7.126;2024-02-21T13:35:38;6.55;;;1.50;;
33954;SDS011;20233;50.804;7.126;2024-02-21T13:38:04;8.70;;;1.75;;
33954;SDS011;20233;50.804;7.126;2024-02-21T13:40:30;6.88;;;1.27;;
33954;SDS011;20233;50.804;7.126;2024-02-21T13:42:55;8.52;;;1.63;;
33954;SDS011;20233;50.804;7.126;2024-02-21T13:45:21;10.73;;;1.25;;
33954;SDS011;20233;50.804;7.126;2024-02-21T13:47:47;8.98;;;1.38;;
33954;SDS011;20233;50.804;7.126;2024-02-21T13:50:13;5.45;;;0.98;;
33954;SDS011;20233;50.804;7.126;2024-02-21T13:52:39;5.85;;;1.30;;
33954;SDS011;20233;50.804;7.126;2024-02-21T13:55:08;9.48;;;1.90;;
33954;SDS011;20233;50.804;7.126;2024-02-21T13:57:37;6.55;;;1.30;;
33954;SDS011;20233;50.804;7.126;2024-02-21T14:00:07;6.85;;;1.00;;
33954;SDS011;20233;50.804;7.126;2024-02-21T14:02:39;9.10;;;1.30;;
33954;SDS011;20233;50.804;7.126;2024-02-21T14:05:05;4.40;;;1.52;;
33954;SDS011;20233;50.804;7.126;2024-02-21T14:07:31;5.88;;;1.20;;
33954;SDS011;20233;50.804;7.126;2024-02-21T14:09:58;7.70;;;1.27;;
33954;SDS011;20233;50.804;7.126;2024-02-21T14:12:24;4.90;;;1.20;;
33954;SDS011;20233;50.804;7.126;2024-02-21T14:14:50;5.35;;;1.30;;
33954;SDS011;20233;50.804;7.126;2024-02-21T14:17:16;8.25;;;1.52;;
33954;SDS011;20233;50.804;7.126;2024-02-21T14:19:42;9.35;;;1.30;;
33954;SDS011;20233;50.804;7.126;2024-02-21T14:22:08;6.85;;;1.40;;
33954;SDS011;20233;50.804;7.126;2024-02-21T14:24:37;7.97;;;1.67;;
33954;SDS011;20233;50.804;7.126;2024-02-21T14:27:03;8.68;;;1.30;;
33954;SDS011;20233;50.804;7.126;2024-02-21T14:29:29;7.85;;;1.40;;
33954;SDS011;20233;50.804;7.126;2024-02-21T14:31:54;8.15;;;1.23;;
33954;SDS011;20233;50.804;7.126;2024-02-21T14:34:20;8.40;;;1.60;;
33954;SDS011;20233;50.804;7.126;2024-02-21T14:36:46;7.68;;;1.48;;
33954;SDS011;20233;50.804;7.126;2024-02-21T14:39:12;5.18;;;1.25;;
33954;SDS011;20233;50.804;7.126;2024-02-21T14:41:38;7.13;;;1.17;;
33954;SDS011;20233;50.804;7.126;2024-02-21T14:44:04;9.13;;;1.63;;
33954;SDS011;20233;50.804;7.126;2024-02-21T14:46:30;7.15;;;1.52;;